Time;durP1;ratioP1;P1;durP2;ratioP2;P2;SDS_P1;SDS_P2;PMS_P1;PMS_P2;Temp;Humidity;BMP_temperature;BMP_pressure;BME280_temperature;BME280_humidity;BME280_pressure;Samples;Min_cycle;Max_cycle;Signal;HPM_P1;HPM_P2
2022/08/06 00:01:07;;;;;;;1.00;1.00;;;19.80;70.50;;;;;;5093480;28;20534;-62
2022/08/06 00:03:32;;;;;;;2.20;1.02;;;19.80;70.60;;;;;;5107194;28;20479;-62
2022/08/06 00:05:58;;;;;;;1.13;0.90;;;19.70;70.40;;;;;;5094240;28;20107;-62
2022/08/06 00:08:24;;;;;;;6.50;1.17;;;19.70;70.40;;;;;;5106281;28;20368;-62
2022/08/06 00:10:50;;;;;;;5.75;1.25;;;19.70;70.50;;;;;;5094304;28;20036;-62
2022/08/06 00:13:17;;;;;;;5.28;1.15;;;19.70;70.50;;;;;;5095487;28;20024;-62
2022/08/06 00:15:43;;;;;;;5.00;1.10;;;19.60;70.60;;;;;;5093864;28;20789;-62
2022/08/06 00:18:08;;;;;;;3.25;1.00;;;19.50;70.60;;;;;;5095634;28;20024;-62
2022/08/06 00:20:34;;;;;;;2.42;1.17;;;19.50;70.60;;;;;;5094631;28;20036;-62
2022/08/06 00:23:00;;;;;;;1.65;1.05;;;19.50;70.60;;;;;;5092770;28;20150;-62
2022/08/06 00:25:26;;;;;;;1.50;0.93;;;19.50;70.70;;;;;;5092728;28;20088;-62
2022/08/06 00:27:51;;;;;;;1.88;0.98;;;19.40;70.60;;;;;;5106274;28;20422;-62
2022/08/06 00:30:17;;;;;;;4.75;1.80;;;19.40;70.70;;;;;;5104165;28;20038;-62
2022/08/06 00:32:43;;;;;;;1.40;1.05;;;19.30;70.60;;;;;;5094949;28;20052;-62
2022/08/06 00:35:08;;;;;;;4.65;1.25;;;19.30;70.70;;;;;;5092992;28;20082;-62
2022/08/06 00:37:34;;;;;;;3.00;0.93;;;19.30;70.70;;;;;;5111063;28;20026;-62
2022/08/06 00:40:00;;;;;;;4.57;1.00;;;19.30;70.80;;;;;;5113211;28;20390;-62
2022/08/06 00:42:27;;;;;;;1.60;1.00;;;19.20;70.90;;;;;;5111446;28;20024;-62
2022/08/06 00:44:53;;;;;;;7.45;1.10;;;19.20;71.60;;;;;;5112258;28;20035;-62
2022/08/06 00:47:18;;;;;;;8.50;1.00;;;19.10;71.00;;;;;;5111494;28;20163;-62
2022/08/06 00:49:44;;;;;;;2.22;0.98;;;19.10;71.10;;;;;;5100963;28;20085;-62
2022/08/06 00:52:10;;;;;;;1.85;0.90;;;19.00;71.10;;;;;;5098982;28;20035;-62
2022/08/06 00:54:35;;;;;;;1.30;0.82;;;19.00;71.30;;;;;;5100742;28;20552;-62
2022/08/06 00:57:03;;;;;;;3.63;1.02;;;19.00;71.30;;;;;;5096300;28;20027;-62
2022/08/06 00:59:28;;;;;;;2.10;0.90;;;18.90;71.30;;;;;;5102446;28;20028;-62
2022/08/06 01:01:54;;;;;;;2.58;1.02;;;18.90;71.40;;;;;;5105488;28;20824;-62
2022/08/06 01:04:20;;;;;;;2.72;1.10;;;18.90;71.50;;;;;;5104077;28;20046;-62
2022/08/06 01:06:46;;;;;;;2.13;0.90;;;18.90;71.60;;;;;;5109756;28;20024;-62
2022/08/06 01:09:11;;;;;;;5.95;1.10;;;18.80;71.50;;;;;;5101586;28;20110;-62
2022/08/06 01:11:38;;;;;;;0.60;0.60;;;18.80;71.60;;;;;;5097681;28;20073;-62
2022/08/06 01:14:04;;;;;;;2.78;0.95;;;18.80;71.70;;;;;;5111250;28;20084;-62
2022/08/06 01:16:38;;;;;;;2.60;1.08;;;18.70;71.70;;;;;;5108756;28;20696;-62
2022/08/06 01:19:06;;;;;;;2.17;0.85;;;18.70;71.70;;;;;;5097866;28;20525;-62
2022/08/06 01:21:58;;;;;;;2.53;1.10;;;18.70;71.80;;;;;;5095963;28;20080;-62
2022/08/06 01:24:51;;;;;;;2.53;1.30;;;18.70;71.80;;;;;;5095052;28;20535;-62
2022/08/06 01:27:38;;;;;;;3.65;0.82;;;18.60;71.80;;;;;;5092992;28;20027;-62
2022/08/06 01:30:17;;;;;;;11.57;1.00;;;18.60;71.80;;;;;;5105777;28;20055;-62
2022/08/06 01:33:04;;;;;;;3.70;0.98;;;18.50;71.80;;;;;;5102292;28;20494;-62
2022/08/06 01:35:36;;;;;;;1.85;0.98;;;18.50;72.00;;;;;;5092770;28;20043;-61
2022/08/06 01:38:43;;;;;;;4.85;0.85;;;18.50;72.00;;;;;;5104709;28;20039;-62
2022/08/06 01:41:13;;;;;;;1.85;0.98;;;18.40;71.90;;;;;;5118917;28;20027;-61
2022/08/06 01:43:41;;;;;;;1.73;0.90;;;18.40;72.10;;;;;;5118946;27;20110;-62
2022/08/06 01:46:10;;;;;;;2.13;1.00;;;18.40;72.20;;;;;;5118379;27;20072;-61
2022/08/06 01:48:37;;;;;;;1.85;1.00;;;18.30;72.90;;;;;;5110201;27;20039;-62
2022/08/06 01:51:07;;;;;;;2.80;0.90;;;18.30;72.30;;;;;;5099301;28;20123;-62
2022/08/06 01:53:36;;;;;;;5.18;1.08;;;18.30;72.40;;;;;;5104042;28;20126;-62
2022/08/06 01:56:05;;;;;;;1.95;1.00;;;18.20;72.40;;;;;;5118102;27;20126;-62
2022/08/06 01:58:41;;;;;;;0.70;0.70;;;18.20;72.50;;;;;;5106585;28;20112;-62
2022/08/06 02:01:12;;;;;;;2.38;0.88;;;18.20;72.60;;;;;;5102766;27;20472;-61
2022/08/06 02:03:43;;;;;;;2.15;1.00;;;18.10;72.70;;;;;;5099138;28;20099;-62
2022/08/06 02:06:14;;;;;;;1.38;1.00;;;18.10;72.70;;;;;;5098673;28;20071;-62
2022/08/06 02:08:42;;;;;;;4.88;1.08;;;18.10;72.80;;;;;;5109799;28;20502;-62
2022/08/06 02:11:10;;;;;;;0.90;0.90;;;18.10;72.80;;;;;;5100464;27;20450;-61
2022/08/06 02:13:40;;;;;;;1.73;1.10;;;18.10;73.00;;;;;;5111068;28;20035;-62
2022/08/06 02:16:08;;;;;;;1.10;1.00;;;18.00;72.90;;;;;;5098993;28;20044;-62
2022/08/06 02:18:37;;;;;;;3.10;1.13;;;17.90;72.90;;;;;;5114827;28;20034;-62
2022/08/06 02:21:16;;;;;;;1.67;1.02;;;17.90;73.00;;;;;;5106003;27;20089;-62
2022/08/06 02:23:43;;;;;;;2.25;1.10;;;17.90;73.10;;;;;;5105401;27;20047;-62
2022/08/06 02:26:11;;;;;;;5.55;1.20;;;17.90;73.10;;;;;;5105032;27;20379;-61
2022/08/06 02:28:39;;;;;;;2.15;1.00;;;17.90;73.20;;;;;;5098622;28;20028;-62
2022/08/06 02:31:05;;;;;;;2.05;1.02;;;17.90;73.20;;;;;;5098370;28;20036;-62
2022/08/06 02:33:33;;;;;;;1.50;0.95;;;17.90;73.20;;;;;;5099285;28;20032;-62
2022/08/06 02:36:41;;;;;;;3.67;1.23;;;17.80;73.20;;;;;;5111370;28;20044;-62
2022/08/06 02:39:17;;;;;;;1.92;1.00;;;17.80;73.20;;;;;;5086863;28;20126;-61
2022/08/06 02:41:53;;;;;;;1.98;1.10;;;17.80;73.20;;;;;;5098241;28;20028;-62
2022/08/06 02:44:40;;;;;;;4.18;1.75;;;17.80;73.40;;;;;;5100873;28;20625;-62
2022/08/06 02:47:17;;;;;;;2.63;1.00;;;17.70;73.20;;;;;;5099031;28;20032;-62
2022/08/06 02:49:47;;;;;;;4.30;1.08;;;17.70;73.20;;;;;;5094190;28;20024;-61
2022/08/06 02:52:46;;;;;;;3.83;1.00;;;17.70;73.20;;;;;;5096309;28;20039;-62
2022/08/06 02:55:16;;;;;;;2.80;1.10;;;17.70;73.30;;;;;;5101698;28;20090;-62
2022/08/06 02:57:51;;;;;;;4.15;1.20;;;17.60;73.20;;;;;;5101287;28;20035;-61
2022/08/06 03:00:18;;;;;;;1.08;0.82;;;17.60;73.30;;;;;;5114239;28;20043;-62
2022/08/06 03:02:45;;;;;;;3.22;1.75;;;17.60;73.40;;;;;;5106078;28;20123;-61
2022/08/06 03:05:17;;;;;;;4.43;1.13;;;17.50;73.50;;;;;;5095930;28;20028;-62
2022/08/06 03:07:44;;;;;;;1.38;0.93;;;17.50;73.60;;;;;;5105540;28;20032;-62
2022/08/06 03:10:12;;;;;;;1.67;1.00;;;17.50;73.70;;;;;;5110869;28;20051;-62
2022/08/06 03:12:38;;;;;;;1.08;0.90;;;17.50;73.80;;;;;;5105610;28;20468;-62
2022/08/06 03:15:06;;;;;;;2.90;1.10;;;17.40;73.60;;;;;;5094940;28;20132;-62
2022/08/06 03:17:33;;;;;;;1.48;1.10;;;17.40;73.80;;;;;;5105370;28;20545;-61
2022/08/06 03:20:01;;;;;;;1.90;1.10;;;17.40;73.80;;;;;;5113776;28;20066;-62
2022/08/06 03:22:28;;;;;;;1.55;1.25;;;17.40;73.80;;;;;;5104501;28;20043;-62
2022/08/06 03:24:55;;;;;;;2.60;1.33;;;17.40;73.90;;;;;;5107001;28;20036;-62
2022/08/06 03:27:21;;;;;;;1.88;1.13;;;17.30;73.90;;;;;;5096357;28;20118;-62
2022/08/06 03:29:48;;;;;;;2.25;1.25;;;17.30;73.90;;;;;;5107377;28;20902;-61
2022/08/06 03:32:15;;;;;;;1.20;1.00;;;17.30;73.60;;;;;;5094679;28;20144;-62
2022/08/06 03:34:42;;;;;;;2.58;1.15;;;17.20;73.30;;;;;;5095425;28;20044;-61
2022/08/06 03:37:08;;;;;;;3.33;1.25;;;17.20;73.30;;;;;;5095560;28;20028;-62
2022/08/06 03:39:37;;;;;;;1.55;1.20;;;17.20;73.30;;;;;;5097954;28;20020;-61
2022/08/06 03:42:04;;;;;;;1.60;1.10;;;17.20;73.40;;;;;;5102993;28;20027;-62
2022/08/06 03:44:29;;;;;;;2.03;1.20;;;17.10;73.40;;;;;;5107855;28;20181;-62
2022/08/06 03:47:21;;;;;;;3.03;1.02;;;17.10;73.40;;;;;;5104325;28;20110;-62
2022/08/06 03:49:52;;;;;;;2.22;1.27;;;17.10;73.50;;;;;;5094314;28;20486;-62
2022/08/06 03:52:23;;;;;;;3.08;1.20;;;17.00;74.20;;;;;;5094085;28;20032;-61
2022/08/06 03:54:52;;;;;;;3.15;1.40;;;17.00;73.80;;;;;;5102975;28;20169;-62
2022/08/06 03:57:24;;;;;;;1.98;1.27;;;17.00;73.90;;;;;;5100375;28;20028;-62
2022/08/06 03:59:53;;;;;;;1.30;1.10;;;17.00;74.10;;;;;;5102537;28;20545;-62
2022/08/06 04:02:20;;;;;;;1.75;1.20;;;17.00;74.10;;;;;;5097401;28;20027;-62
2022/08/06 04:04:47;;;;;;;4.15;1.50;;;16.90;74.20;;;;;;5102889;28;20066;-62
2022/08/06 04:07:18;;;;;;;1.10;1.00;;;16.90;74.20;;;;;;5106541;28;20024;-62
2022/08/06 04:09:47;;;;;;;1.45;1.20;;;16.90;74.40;;;;;;5094059;28;20028;-62
2022/08/06 04:12:14;;;;;;;1.20;1.08;;;16.90;74.30;;;;;;5093953;28;20115;-62
2022/08/06 04:14:40;;;;;;;1.23;1.13;;;16.80;74.40;;;;;;5105416;28;20498;-61
2022/08/06 04:17:06;;;;;;;1.40;1.30;;;16.80;74.50;;;;;;5099644;28;20019;-62
2022/08/06 04:19:33;;;;;;;3.35;1.08;;;16.90;74.60;;;;;;5101596;28;20112;-61
2022/08/06 04:21:59;;;;;;;7.65;2.03;;;16.80;74.70;;;;;;5105851;28;20028;-62
2022/08/06 04:24:25;;;;;;;1.92;1.30;;;16.80;74.70;;;;;;5093643;28;20483;-62
2022/08/06 04:26:53;;;;;;;3.60;1.20;;;16.80;74.80;;;;;;5112444;28;20020;-62
2022/08/06 04:29:21;;;;;;;3.55;1.20;;;16.80;74.80;;;;;;5100590;28;20500;-62
2022/08/06 04:31:50;;;;;;;4.53;1.23;;;16.80;74.90;;;;;;5112618;28;20058;-62
2022/08/06 04:34:22;;;;;;;3.40;1.30;;;16.80;74.90;;;;;;5111374;28;20093;-61
2022/08/06 04:36:49;;;;;;;1.57;1.30;;;16.70;74.80;;;;;;5101300;28;20070;-62
2022/08/06 04:39:16;;;;;;;1.08;1.00;;;16.70;74.60;;;;;;5110694;28;20027;-62
2022/08/06 04:41:42;;;;;;;1.38;1.20;;;16.70;74.30;;;;;;5111085;27;20035;-61
2022/08/06 04:44:09;;;;;;;1.42;1.00;;;16.70;74.30;;;;;;5099240;28;20046;-62
2022/08/06 04:46:35;;;;;;;1.35;1.10;;;16.70;74.20;;;;;;5113215;28;20387;-62
2022/08/06 04:49:01;;;;;;;2.03;1.10;;;16.70;74.30;;;;;;5111370;28;20040;-62
2022/08/06 04:51:26;;;;;;;3.30;1.10;;;16.60;74.20;;;;;;5113360;28;20039;-62
2022/08/06 04:53:52;;;;;;;2.45;0.90;;;16.60;74.60;;;;;;5112390;28;20024;-61
2022/08/06 04:56:21;;;;;;;1.00;0.93;;;16.60;74.40;;;;;;5112578;28;20043;-62
2022/08/06 04:58:47;;;;;;;4.97;1.30;;;16.60;74.40;;;;;;5110845;28;20038;-62
2022/08/06 05:01:13;;;;;;;1.58;1.13;;;16.60;74.80;;;;;;5101888;28;20028;-61
2022/08/06 05:03:39;;;;;;;1.27;1.00;;;16.60;75.00;;;;;;5097998;28;20486;-62
2022/08/06 05:06:38;;;;;;;2.05;1.33;;;16.60;75.10;;;;;;5113058;27;20085;-62
2022/08/06 05:09:09;;;;;;;2.47;1.27;;;16.60;75.40;;;;;;5099595;28;20032;-62
2022/08/06 05:11:41;;;;;;;3.83;1.30;;;16.60;75.60;;;;;;5096711;28;20043;-62
2022/08/06 05:14:14;;;;;;;2.40;1.30;;;16.60;76.10;;;;;;5093113;28;20043;-62
2022/08/06 05:16:43;;;;;;;;;;;16.60;76.40;;;;;;5105730;28;19920;-62
2022/08/06 05:19:16;;;;;;;2.65;1.27;;;16.60;75.50;;;;;;5103067;28;19908;-62
2022/08/06 05:21:45;;;;;;;2.22;1.30;;;16.60;75.90;;;;;;5098631;28;20027;-61
2022/08/06 05:24:11;;;;;;;2.22;1.20;;;16.70;76.10;;;;;;5100651;28;20089;-62
2022/08/06 05:26:37;;;;;;;5.78;1.08;;;16.70;76.30;;;;;;5097456;28;20486;-62
2022/08/06 05:29:03;;;;;;;1.70;1.17;;;16.70;76.50;;;;;;5113074;28;20036;-62
2022/08/06 05:31:34;;;;;;;4.10;1.50;;;16.70;76.80;;;;;;5093012;28;20036;-62
2022/08/06 05:34:09;;;;;;;3.63;1.30;;;16.70;77.60;;;;;;5105765;28;20032;-62
2022/08/06 05:36:35;;;;;;;2.97;1.10;;;16.80;77.40;;;;;;5101858;28;20032;-61
2022/08/06 05:39:01;;;;;;;2.28;1.15;;;16.80;77.40;;;;;;5107395;28;20417;-62
2022/08/06 05:41:30;;;;;;;2.15;1.25;;;16.90;77.20;;;;;;5110510;28;20035;-62
2022/08/06 05:43:56;;;;;;;3.13;1.40;;;16.90;77.20;;;;;;5110314;28;20024;-62
2022/08/06 05:46:23;;;;;;;1.60;1.10;;;16.90;77.30;;;;;;5106663;28;20036;-62
2022/08/06 05:48:59;;;;;;;4.55;1.10;;;16.90;77.40;;;;;;5106998;28;20373;-62
2022/08/06 05:51:43;;;;;;;1.40;1.20;;;16.90;77.70;;;;;;5108121;28;20028;-62
2022/08/06 05:54:33;;;;;;;1.85;1.48;;;16.90;77.60;;;;;;5102079;28;20032;-62
2022/08/06 05:57:09;;;;;;;7.10;0.90;;;16.90;77.10;;;;;;5108203;28;20035;-62
2022/08/06 05:59:39;;;;;;;0.77;0.57;;;16.90;76.70;;;;;;5107987;28;20028;-61
2022/08/06 06:02:06;;;;;;;0.60;0.60;;;16.90;77.60;;;;;;5108037;28;20087;-62
2022/08/06 06:04:32;;;;;;;0.35;0.35;;;16.80;78.60;;;;;;5111604;28;20031;-62
2022/08/06 06:06:58;;;;;;;0.98;0.88;;;16.80;79.20;;;;;;5104126;28;20032;-62
2022/08/06 06:09:25;;;;;;;0.47;0.43;;;16.80;79.50;;;;;;5105536;28;20085;-62
2022/08/06 06:11:51;;;;;;;5.13;0.55;;;16.80;79.80;;;;;;5103274;28;20562;-62
2022/08/06 06:14:33;;;;;;;0.60;0.60;;;16.80;79.90;;;;;;5101136;28;20028;-62
2022/08/06 06:17:05;;;;;;;8.38;1.17;;;16.80;80.00;;;;;;5106001;28;20028;-62
2022/08/06 06:19:41;;;;;;;2.72;0.90;;;16.80;80.30;;;;;;5112401;28;20032;-63
2022/08/06 06:22:21;;;;;;;5.40;1.50;;;16.80;80.00;;;;;;5106193;28;20493;-62
2022/08/06 06:25:01;;;;;;;3.15;1.20;;;16.90;80.50;;;;;;5108703;28;20019;-63
2022/08/06 06:27:38;;;;;;;8.77;1.15;;;16.90;80.50;;;;;;5107399;28;20247;-62
2022/08/06 06:30:07;;;;;;;2.72;2.05;;;17.00;80.50;;;;;;5109708;28;20032;-62
2022/08/06 06:33:00;;;;;;;2.28;1.13;;;17.00;80.50;;;;;;5109734;28;20466;-62
2022/08/06 06:36:04;;;;;;;8.38;1.40;;;17.10;80.70;;;;;;5108953;28;20069;-62
2022/08/06 06:38:50;;;;;;;;;;;17.10;80.10;;;;;;5029444;28;20040;-62
2022/08/06 06:41:23;;;;;;;0.40;0.40;;;17.20;78.80;;;;;;5019318;28;19961;-62
2022/08/06 06:44:07;;;;;;;0.73;0.73;;;17.10;79.00;;;;;;5082136;28;20039;-62
2022/08/06 06:46:43;;;;;;;0.98;0.43;;;17.10;79.50;;;;;;5110323;28;20031;-62
2022/08/06 06:49:15;;;;;;;0.40;0.40;;;17.10;79.80;;;;;;5110010;28;20106;-62
2022/08/06 06:51:49;;;;;;;3.53;1.10;;;17.10;80.00;;;;;;5113096;28;20038;-62
2022/08/06 06:54:24;;;;;;;0.40;0.40;;;17.10;80.80;;;;;;5110805;28;20031;-62
2022/08/06 06:56:52;;;;;;;0.40;0.40;;;17.00;80.20;;;;;;5110095;28;20498;-62
2022/08/06 06:59:24;;;;;;;0.68;0.68;;;17.10;81.20;;;;;;5110283;28;20020;-62
2022/08/06 07:01:52;;;;;;;0.52;0.52;;;17.10;80.90;;;;;;5110237;28;20032;-62
2022/08/06 07:04:19;;;;;;;2.30;0.77;;;17.10;81.30;;;;;;5108680;28;20024;-62
2022/08/06 07:06:47;;;;;;;2.58;1.17;;;17.20;81.50;;;;;;5108481;27;20475;-62
2022/08/06 07:09:19;;;;;;;5.20;1.02;;;17.20;82.10;;;;;;5111140;28;20441;-62
2022/08/06 07:11:47;;;;;;;0.45;0.45;;;17.30;82.50;;;;;;5109062;28;20050;-62
2022/08/06 07:14:14;;;;;;;1.92;0.80;;;17.30;82.50;;;;;;5108642;28;20018;-62
2022/08/06 07:16:42;;;;;;;0.70;0.55;;;17.30;82.00;;;;;;5107587;28;20024;-62
2022/08/06 07:19:09;;;;;;;0.60;0.45;;;17.40;81.60;;;;;;5107486;28;20027;-62
2022/08/06 07:21:37;;;;;;;2.08;0.75;;;17.50;81.90;;;;;;5107870;28;20031;-62
2022/08/06 07:24:04;;;;;;;1.40;0.68;;;17.50;82.10;;;;;;5107350;28;20130;-62
2022/08/06 07:26:31;;;;;;;0.40;0.40;;;17.60;81.80;;;;;;5106458;28;20077;-61
2022/08/06 07:28:59;;;;;;;1.92;0.70;;;17.60;81.40;;;;;;5108101;28;20099;-62
2022/08/06 07:31:29;;;;;;;1.15;0.70;;;17.70;81.80;;;;;;5108490;28;20032;-62
2022/08/06 07:33:56;;;;;;;1.30;0.70;;;17.70;81.80;;;;;;5109574;28;20027;-62
2022/08/06 07:36:25;;;;;;;1.33;0.77;;;17.70;81.80;;;;;;5109125;28;20090;-62
2022/08/06 07:38:55;;;;;;;1.45;0.82;;;17.80;81.70;;;;;;5107034;28;20442;-62
2022/08/06 07:41:22;;;;;;;1.70;0.50;;;17.80;82.20;;;;;;5110092;28;20067;-62
2022/08/06 07:43:53;;;;;;;1.55;0.80;;;17.90;81.90;;;;;;5107245;28;20030;-62
2022/08/06 07:46:22;;;;;;;0.40;0.40;;;17.90;81.90;;;;;;5107380;28;20027;-62
2022/08/06 07:48:58;;;;;;;0.30;0.30;;;17.90;81.60;;;;;;5110251;28;20471;-62
2022/08/06 07:51:29;;;;;;;0.30;0.30;;;18.00;82.00;;;;;;5108385;28;20076;-62
2022/08/06 07:53:56;;;;;;;3.45;0.82;;;18.00;82.40;;;;;;5110531;28;20028;-62
2022/08/06 07:56:23;;;;;;;2.28;0.90;;;18.00;82.70;;;;;;5108259;28;20039;-62
2022/08/06 07:58:53;;;;;;;5.55;0.80;;;18.10;82.60;;;;;;5110977;28;20028;-63
2022/08/06 08:01:20;;;;;;;2.08;0.80;;;18.10;82.90;;;;;;5105084;28;20043;-64
2022/08/06 08:06:32;;;;;;;3.88;0.90;;;18.20;82.00;;;;;;5110028;28;20114;-63
2022/08/06 08:09:10;;;;;;;1.67;0.90;;;18.20;82.20;;;;;;5101798;27;20074;-62
2022/08/06 08:11:40;;;;;;;9.68;1.08;;;18.30;82.60;;;;;;5107754;28;20058;-62
2022/08/06 08:14:08;;;;;;;2.83;0.60;;;18.30;81.90;;;;;;5105616;28;20189;-62
2022/08/06 08:16:40;;;;;;;2.53;1.15;;;18.40;81.80;;;;;;5109752;27;20031;-62
2022/08/06 08:19:33;;;;;;;4.38;0.80;;;18.50;82.20;;;;;;5103742;28;20024;-62
2022/08/06 08:21:59;;;;;;;1.25;0.57;;;18.60;82.10;;;;;;5105551;28;20035;-62
2022/08/06 08:24:27;;;;;;;1.17;0.60;;;18.70;80.10;;;;;;5111101;28;20051;-62
2022/08/06 08:26:54;;;;;;;0.85;0.70;;;18.70;80.30;;;;;;5095207;28;20111;-63
2022/08/06 08:29:23;;;;;;;4.65;1.25;;;18.70;79.20;;;;;;5101385;28;20471;-62
2022/08/06 08:31:48;;;;;;;4.18;1.10;;;18.80;79.30;;;;;;5104833;28;20066;-62
2022/08/06 08:34:14;;;;;;;5.88;1.27;;;18.90;79.30;;;;;;5112519;28;20032;-62
2022/08/06 08:36:40;;;;;;;9.93;1.30;;;18.90;79.30;;;;;;5102474;28;20046;-62
2022/08/06 08:39:06;;;;;;;3.75;1.10;;;19.00;79.30;;;;;;5103725;28;20027;-63
2022/08/06 08:41:39;;;;;;;3.08;1.10;;;19.10;79.00;;;;;;5105582;28;20030;-62
2022/08/06 08:44:07;;;;;;;4.07;1.00;;;19.20;78.30;;;;;;5105830;28;20115;-63
2022/08/06 08:46:37;;;;;;;3.90;1.20;;;19.30;77.80;;;;;;5103548;28;20559;-62
2022/08/06 08:49:05;;;;;;;3.63;1.17;;;19.40;77.50;;;;;;5106963;28;20031;-62
2022/08/06 08:51:34;;;;;;;2.83;1.40;;;19.40;77.40;;;;;;5107007;28;20142;-62
2022/08/06 08:54:05;;;;;;;2.90;1.30;;;19.50;77.50;;;;;;5103396;28;20043;-62
2022/08/06 08:56:32;;;;;;;2.45;1.15;;;19.50;77.30;;;;;;5106077;28;20093;-62
2022/08/06 08:58:58;;;;;;;7.85;1.40;;;19.60;76.90;;;;;;5110992;28;20110;-62
2022/08/06 09:01:24;;;;;;;65.07;3.55;;;19.70;77.00;;;;;;5109071;28;20035;-62
2022/08/06 09:03:50;;;;;;;21.40;3.70;;;19.70;76.80;;;;;;5106921;28;20036;-62
2022/08/06 09:06:16;;;;;;;5.82;1.45;;;19.70;76.90;;;;;;5104488;28;20031;-62
2022/08/06 09:08:44;;;;;;;6.13;1.50;;;19.80;77.00;;;;;;5106122;28;20073;-62
2022/08/06 09:11:10;;;;;;;5.88;1.55;;;19.80;76.90;;;;;;5099010;28;20023;-62
2022/08/06 09:13:36;;;;;;;5.85;1.40;;;19.80;76.80;;;;;;5100443;28;20451;-62
2022/08/06 09:16:02;;;;;;;6.50;1.88;;;19.80;76.80;;;;;;5104061;28;20035;-62
2022/08/06 09:18:28;;;;;;;5.70;1.80;;;19.90;76.40;;;;;;5094831;28;20024;-62
2022/08/06 09:20:54;;;;;;;2.50;1.50;;;19.90;75.50;;;;;;5101152;28;20028;-62
2022/08/06 09:23:20;;;;;;;4.90;1.65;;;20.00;75.80;;;;;;5106880;28;20035;-62
2022/08/06 09:25:49;;;;;;;6.07;1.45;;;20.00;74.80;;;;;;5110468;28;20024;-62
2022/08/06 09:28:32;;;;;;;2.22;1.35;;;20.00;75.10;;;;;;5104151;28;20031;-62
2022/08/06 09:31:02;;;;;;;3.22;1.25;;;20.00;74.90;;;;;;5104825;28;20031;-63
2022/08/06 09:33:30;;;;;;;2.70;1.30;;;20.10;74.50;;;;;;5108214;28;20077;-63
2022/08/06 09:36:02;;;;;;;5.88;1.63;;;20.10;74.30;;;;;;5108368;28;20503;-65
2022/08/06 09:38:28;;;;;;;6.72;1.30;;;20.10;73.70;;;;;;5104023;28;20027;-65
2022/08/06 09:41:12;;;;;;;2.85;1.38;;;20.20;71.70;;;;;;5105115;28;20066;-66
2022/08/06 09:43:39;;;;;;;3.22;1.40;;;20.20;72.30;;;;;;5107356;28;20107;-63
2022/08/06 09:46:08;;;;;;;2.60;1.33;;;20.20;73.30;;;;;;5101594;28;20479;-62
2022/08/06 09:48:34;;;;;;;4.03;1.58;;;20.20;73.70;;;;;;5110004;28;20020;-62
2022/08/06 09:51:00;;;;;;;5.15;1.58;;;20.20;73.10;;;;;;5099337;28;20035;-62
2022/08/06 09:53:26;;;;;;;5.40;1.88;;;20.20;73.40;;;;;;5104815;28;20036;-62
2022/08/06 09:55:55;;;;;;;4.45;1.67;;;20.30;73.20;;;;;;5100537;28;20482;-62
2022/08/06 09:58:35;;;;;;;4.38;1.77;;;20.40;73.50;;;;;;5100882;28;20471;-62
2022/08/06 10:01:37;;;;;;;4.10;1.80;;;20.40;73.30;;;;;;5096284;28;20279;-63
2022/08/06 10:04:03;;;;;;;5.03;1.67;;;20.60;73.50;;;;;;5093178;28;20032;-64
2022/08/06 10:06:29;;;;;;;5.93;1.98;;;20.60;73.80;;;;;;5102298;28;20031;-62
2022/08/06 10:09:09;;;;;;;8.52;2.45;;;20.70;73.50;;;;;;5109425;28;20083;-62
2022/08/06 10:11:41;;;;;;;3.80;1.88;;;20.80;73.40;;;;;;5104699;28;20494;-62
2022/08/06 10:14:25;;;;;;;4.05;1.90;;;20.80;72.90;;;;;;5109430;28;20027;-61
2022/08/06 10:17:08;;;;;;;2.55;1.67;;;20.90;72.30;;;;;;5105677;28;20044;-61
2022/08/06 10:19:35;;;;;;;;;;;20.80;72.40;;;;;;5102766;28;20037;-61
2022/08/06 10:22:19;;;;;;;5.00;2.03;;;20.80;72.70;;;;;;5112537;28;19908;-61
2022/08/06 10:24:53;;;;;;;4.60;2.20;;;20.90;72.90;;;;;;5113319;28;20023;-62
2022/08/06 10:27:22;;;;;;;7.35;2.67;;;20.90;73.30;;;;;;5110836;28;20043;-63
2022/08/06 10:29:55;;;;;;;8.85;3.25;;;21.00;72.90;;;;;;5102251;28;20020;-62
2022/08/06 10:32:29;;;;;;;4.17;2.30;;;21.00;72.80;;;;;;5103856;28;20071;-62
2022/08/06 10:34:57;;;;;;;4.75;2.70;;;21.10;72.60;;;;;;5094870;28;20543;-61
2022/08/06 10:37:23;;;;;;;7.20;2.80;;;21.10;72.40;;;;;;5111200;28;20035;-62
2022/08/06 10:39:54;;;;;;;5.53;2.42;;;21.10;72.20;;;;;;5112272;28;20035;-62
2022/08/06 10:42:21;;;;;;;2.75;1.98;;;21.20;72.50;;;;;;5113712;28;20069;-65
2022/08/06 10:44:53;;;;;;;6.60;2.25;;;21.20;72.90;;;;;;5109044;28;20081;-61
2022/08/06 10:47:20;;;;;;;3.90;2.38;;;21.30;72.40;;;;;;5111762;28;20058;-62
2022/08/06 10:49:47;;;;;;;7.97;2.67;;;21.30;72.80;;;;;;5114031;28;20076;-61
2022/08/06 10:52:13;;;;;;;9.00;2.70;;;21.40;72.70;;;;;;5111674;28;20031;-62
2022/08/06 10:54:40;;;;;;;3.92;2.55;;;21.40;72.70;;;;;;5110512;28;20039;-62
2022/08/06 10:57:09;;;;;;;4.18;2.42;;;21.40;71.90;;;;;;5111221;28;20482;-62
2022/08/06 10:59:35;;;;;;;5.18;2.10;;;21.40;72.00;;;;;;5110736;28;20475;-62
2022/08/06 11:02:32;;;;;;;3.97;2.05;;;21.40;71.30;;;;;;5110825;28;20042;-62
2022/08/06 11:05:00;;;;;;;7.18;1.95;;;21.50;71.30;;;;;;5113129;28;20409;-62
2022/08/06 11:07:42;;;;;;;5.15;1.92;;;21.50;70.60;;;;;;5108391;28;20095;-62
2022/08/06 11:10:10;;;;;;;3.90;2.17;;;21.50;70.30;;;;;;5108849;28;20023;-63
2022/08/06 11:12:48;;;;;;;2.92;2.33;;;21.50;70.20;;;;;;5103247;28;20058;-63
2022/08/06 11:15:14;;;;;;;4.78;2.38;;;21.50;70.00;;;;;;5107318;28;20126;-62
2022/08/06 11:17:49;;;;;;;4.72;2.47;;;21.60;69.70;;;;;;5101746;28;20189;-62
2022/08/06 11:20:39;;;;;;;6.53;2.70;;;21.60;68.00;;;;;;5111212;28;20036;-63
2022/08/06 11:23:23;;;;;;;4.03;2.33;;;21.60;68.70;;;;;;5095511;28;20028;-62
2022/08/06 11:26:02;;;;;;;6.13;2.20;;;21.60;67.20;;;;;;5096330;28;20376;-62
2022/08/06 11:28:31;;;;;;;7.45;2.70;;;21.70;67.50;;;;;;5098726;28;20042;-62
2022/08/06 11:30:59;;;;;;;4.63;2.30;;;21.80;69.00;;;;;;5100291;28;20081;-61
2022/08/06 11:33:34;;;;;;;3.60;2.45;;;21.80;68.70;;;;;;5107741;28;20487;-61
2022/08/06 11:36:00;;;;;;;4.82;2.50;;;21.80;68.30;;;;;;5105365;28;20031;-61
2022/08/06 11:38:48;;;;;;;3.53;2.35;;;21.90;68.60;;;;;;5109777;28;20106;-62
2022/08/06 11:41:21;;;;;;;5.72;2.60;;;21.80;67.90;;;;;;5110336;28;20088;-61
2022/08/06 11:43:53;;;;;;;4.88;2.30;;;21.80;68.50;;;;;;5112639;28;20016;-61
2022/08/06 11:46:24;;;;;;;7.03;3.03;;;21.90;67.60;;;;;;5104663;28;20032;-61
2022/08/06 11:48:59;;;;;;;17.85;3.05;;;21.90;68.10;;;;;;5105389;28;20523;-62
2022/08/06 11:51:51;;;;;;;7.07;3.20;;;22.00;68.10;;;;;;5107692;28;20458;-61
2022/08/06 11:54:25;;;;;;;4.15;2.75;;;22.10;68.10;;;;;;5107152;28;20027;-61
2022/08/06 11:57:06;;;;;;;3.40;2.35;;;22.00;67.20;;;;;;5110720;28;20039;-61
2022/08/06 11:59:44;;;;;;;4.63;2.72;;;22.10;66.60;;;;;;5106250;28;20459;-62
2022/08/06 12:02:16;;;;;;;6.68;2.78;;;22.10;67.30;;;;;;5108380;28;20386;-63
2022/08/06 12:04:44;;;;;;;5.72;3.03;;;22.20;68.30;;;;;;5108307;28;20467;-62
2022/08/06 12:07:33;;;;;;;3.63;2.53;;;22.20;67.80;;;;;;5096698;28;20383;-61
2022/08/06 12:10:09;;;;;;;7.50;3.05;;;22.30;66.50;;;;;;5095988;28;20039;-61
2022/08/06 12:12:43;;;;;;;7.07;2.78;;;22.30;65.40;;;;;;5103919;28;20036;-61
2022/08/06 12:15:11;;;;;;;4.97;2.85;;;22.30;65.60;;;;;;5097663;28;20560;-61
2022/08/06 12:17:38;;;;;;;5.32;2.88;;;22.40;66.50;;;;;;5109115;28;20112;-61
2022/08/06 12:20:05;;;;;;;10.85;3.00;;;22.30;65.60;;;;;;5095778;28;20028;-61
2022/08/06 12:22:36;;;;;;;4.93;2.97;;;22.40;65.60;;;;;;5102404;28;20039;-61
2022/08/06 12:25:06;;;;;;;4.60;2.97;;;22.30;65.30;;;;;;5096820;28;20027;-61
2022/08/06 12:27:35;;;;;;;7.72;2.72;;;22.30;66.40;;;;;;5100840;28;20035;-61
2022/08/06 12:30:02;;;;;;;8.38;2.97;;;22.40;65.10;;;;;;5105387;28;20069;-62
2022/08/06 12:32:33;;;;;;;7.65;3.40;;;22.40;66.40;;;;;;5109121;28;20079;-62
2022/08/06 12:35:02;;;;;;;4.70;3.13;;;22.50;67.60;;;;;;5102561;28;20043;-61
2022/08/06 12:37:42;;;;;;;10.30;2.90;;;22.40;66.00;;;;;;5102715;28;20039;-62
2022/08/06 12:40:26;;;;;;;6.18;3.08;;;22.50;65.00;;;;;;5106582;28;20123;-62
2022/08/06 12:43:04;;;;;;;4.00;2.53;;;22.50;66.80;;;;;;5099459;28;20032;-62
2022/08/06 12:45:31;;;;;;;7.32;3.20;;;22.50;67.10;;;;;;5098104;28;20185;-62
2022/08/06 12:48:08;;;;;;;5.45;2.92;;;22.60;65.80;;;;;;5098300;28;20501;-63
2022/08/06 12:50:36;;;;;;;3.80;2.55;;;22.50;63.00;;;;;;5098728;28;20032;-62
2022/08/06 12:53:13;;;;;;;5.30;2.90;;;22.60;65.80;;;;;;5101173;28;20067;-62
2022/08/06 12:55:48;;;;;;;7.28;3.47;;;22.70;66.10;;;;;;5095446;28;20036;-62
2022/08/06 12:58:16;;;;;;;6.07;3.03;;;22.70;66.10;;;;;;5092721;28;20437;-63
2022/08/06 13:00:45;;;;;;;7.53;2.65;;;22.70;67.40;;;;;;5097058;28;20407;-63
2022/08/06 13:03:17;;;;;;;22.92;3.30;;;22.70;65.40;;;;;;5100965;28;20036;-62
2022/08/06 13:05:44;;;;;;;10.77;3.40;;;22.80;65.80;;;;;;5093898;28;20032;-62
2022/08/06 13:08:10;;;;;;;6.03;3.30;;;22.80;66.20;;;;;;5093569;28;20066;-61
2022/08/06 13:10:36;;;;;;;4.65;2.65;;;22.90;66.10;;;;;;5109623;28;20027;-61